Time;durP1;ratioP1;P1;durP2;ratioP2;P2;SDS_P1;SDS_P2;PMS_P1;PMS_P2;Temp;Humidity;BMP_temperature;BMP_pressure;BME280_temperature;BME280_humidity;BME280_pressure;Samples;Min_cycle;Max_cycle;Signal;HPM_P1;HPM_P2
2022/01/20 00:00:19;;;;;;;15.13;2.60;;;2.80;99.90;;;;;;4977950;28;20722;-71
2022/01/20 00:02:56;;;;;;;8.57;2.47;;;2.70;99.90;;;;;;4977044;28;20211;-71
2022/01/20 00:05:38;;;;;;;10.27;2.00;;;2.80;99.90;;;;;;4967950;28;20180;-73
2022/01/20 00:40:24;;;;;;;8.90;1.70;;;2.50;99.90;;;;;;4973378;28;20220;-74
2022/01/20 00:42:50;;;;;;;5.40;1.17;;;2.60;99.90;;;;;;4977015;28;20193;-73
2022/01/20 00:45:16;;;;;;;8.37;1.77;;;2.60;99.90;;;;;;4971837;28;20184;-73
2022/01/20 00:47:42;;;;;;;8.57;1.90;;;2.70;99.90;;;;;;4972382;28;20183;-72
2022/01/20 00:50:09;;;;;;;9.03;2.17;;;2.80;99.90;;;;;;4979333;28;20197;-72
2022/01/20 00:52:35;;;;;;;9.37;2.03;;;2.70;99.90;;;;;;4978172;28;21320;-73
2022/01/20 00:55:01;;;;;;;7.13;1.97;;;2.80;99.90;;;;;;4978438;28;20213;-72
2022/01/20 00:57:27;;;;;;;3.97;1.43;;;2.80;99.90;;;;;;4977526;28;20193;-72
2022/01/20 00:59:52;;;;;;;8.63;1.40;;;2.70;99.90;;;;;;4974384;28;20246;-72
2022/01/20 01:02:18;;;;;;;8.83;1.63;;;2.80;99.90;;;;;;4960608;28;20279;-72
2022/01/20 01:04:44;;;;;;;12.80;1.87;;;2.90;99.90;;;;;;4977378;28;20215;-73
2022/01/20 01:09:50;;;;;;;7.10;1.43;;;2.90;99.90;;;;;;4977704;28;20184;-73
2022/01/20 01:12:25;;;;;;;7.07;1.50;;;3.00;99.90;;;;;;4978381;28;20193;-74
2022/01/20 01:14:52;;;;;;;6.73;2.20;;;2.90;99.90;;;;;;4960411;28;20196;-71
2022/01/20 01:22:29;;;;;;;8.03;1.97;;;2.70;99.90;;;;;;4977932;28;20574;-71
2022/01/20 01:24:56;;;;;;;12.20;2.67;;;2.70;99.90;;;;;;4970918;28;20208;-70
2022/01/20 01:27:24;;;;;;;6.27;1.57;;;2.70;99.90;;;;;;4976553;28;20275;-74
2022/01/20 01:35:11;;;;;;;6.90;1.63;;;2.60;99.90;;;;;;4976690;28;20260;-73
2022/01/20 01:40:10;;;;;;;11.90;2.90;;;2.60;99.90;;;;;;4974432;28;20292;-71
2022/01/20 01:42:46;;;;;;;7.33;2.10;;;2.60;99.90;;;;;;4958590;28;20185;-71
2022/01/20 01:45:16;;;;;;;7.63;2.47;;;2.50;99.90;;;;;;4955726;28;20253;-71
2022/01/20 01:47:42;;;;;;;8.37;1.93;;;2.50;99.90;;;;;;4971108;28;20691;-73
2022/01/20 01:50:08;;;;;;;7.93;1.43;;;2.50;99.90;;;;;;4968992;28;20655;-72
2022/01/20 01:52:34;;;;;;;11.17;1.73;;;2.40;99.90;;;;;;4975212;28;20672;-72
2022/01/20 01:55:00;;;;;;;13.23;2.47;;;2.50;99.90;;;;;;4971269;28;20201;-72
2022/01/20 01:57:27;;;;;;;12.67;1.90;;;2.60;99.90;;;;;;4973886;28;20251;-71
2022/01/20 01:59:53;;;;;;;12.20;1.57;;;2.60;99.90;;;;;;4973172;28;20220;-71
2022/01/20 02:02:19;;;;;;;9.07;2.07;;;2.60;99.90;;;;;;4971435;28;20184;-71
2022/01/20 02:04:45;;;;;;;9.10;1.50;;;2.60;99.90;;;;;;4974219;28;20197;-73
2022/01/20 02:18:23;;;;;;;6.90;1.93;;;2.80;99.90;;;;;;4978834;28;20683;-71
2022/01/20 02:20:45;;;;;;;9.20;2.30;;;2.90;99.90;;;;;;4977842;28;20688;-73
2022/01/20 02:23:11;;;;;;;7.17;2.37;;;3.00;99.90;;;;;;4981577;28;20196;-70
2022/01/20 02:25:37;;;;;;;8.00;2.53;;;3.10;99.90;;;;;;4978475;28;20645;-71
2022/01/20 02:28:06;;;;;;;10.83;2.20;;;3.10;99.90;;;;;;4976770;28;20195;-72
2022/01/20 02:30:33;;;;;;;11.40;2.47;;;3.10;99.90;;;;;;4972837;28;20212;-72
2022/01/20 02:33:00;;;;;;;13.33;3.07;;;3.20;99.90;;;;;;4977656;28;20279;-74
2022/01/20 02:35:30;;;;;;;8.67;2.67;;;3.10;99.90;;;;;;4977109;28;20550;-72
2022/01/20 02:38:09;;;;;;;10.53;2.50;;;3.20;99.90;;;;;;4974046;28;20192;-72
2022/01/20 02:45:55;;;;;;;10.23;2.53;;;3.30;99.90;;;;;;4976134;28;20234;-73
2022/01/20 02:48:22;;;;;;;7.60;1.80;;;3.30;99.90;;;;;;4976499;28;20180;-71
2022/01/20 02:50:48;;;;;;;10.27;2.57;;;3.30;99.90;;;;;;4979183;28;20193;-70
2022/01/20 02:53:13;;;;;;;6.63;1.40;;;3.30;99.90;;;;;;4979308;28;20337;-71
2022/01/20 02:55:39;;;;;;;9.90;2.03;;;3.30;99.90;;;;;;4978475;28;20283;-72
2022/01/20 02:58:06;;;;;;;6.50;1.97;;;3.30;99.90;;;;;;4973922;28;20201;-73
2022/01/20 03:00:33;;;;;;;7.93;1.53;;;3.20;99.90;;;;;;4976343;28;20201;-71
2022/01/20 03:03:03;;;;;;;8.33;1.93;;;3.20;99.90;;;;;;4980420;28;20555;-71
2022/01/20 03:05:31;;;;;;;6.73;1.33;;;3.20;99.90;;;;;;4979597;28;20187;-70
2022/01/20 03:07:58;;;;;;;8.63;1.70;;;3.10;99.90;;;;;;4976489;28;20528;-74
2022/01/20 03:10:23;;;;;;;8.23;1.67;;;3.10;99.90;;;;;;4976556;28;20298;-71
2022/01/20 03:12:50;;;;;;;13.97;2.83;;;3.10;99.90;;;;;;4974679;28;20274;-72
2022/01/20 03:15:16;;;;;;;7.97;1.60;;;3.10;99.90;;;;;;4974244;28;20220;-72
2022/01/20 03:17:42;;;;;;;7.67;1.53;;;3.00;99.90;;;;;;4977868;28;20267;-74
2022/01/20 03:20:08;;;;;;;10.80;2.33;;;3.00;99.90;;;;;;4975302;28;20213;-72
2022/01/20 03:22:33;;;;;;;10.00;2.27;;;3.10;99.90;;;;;;4981763;28;20176;-72
2022/01/20 03:24:59;;;;;;;9.47;1.83;;;3.10;99.90;;;;;;4977927;28;20576;-72
2022/01/20 03:27:25;;;;;;;10.23;2.07;;;3.20;99.90;;;;;;4979562;28;20186;-74
2022/01/20 03:29:51;;;;;;;13.67;1.80;;;3.20;99.90;;;;;;4981034;28;20641;-73
2022/01/20 03:32:16;;;;;;;7.73;2.00;;;3.30;99.90;;;;;;4978743;28;20212;-71
2022/01/20 03:34:42;;;;;;;9.50;2.30;;;3.30;99.90;;;;;;4973619;28;20210;-72
2022/01/20 03:37:08;;;;;;;8.40;1.77;;;3.30;99.90;;;;;;4972151;28;20275;-72
2022/01/20 03:39:34;;;;;;;9.97;1.83;;;3.40;99.90;;;;;;4979782;28;20212;-72
2022/01/20 03:42:00;;;;;;;6.37;1.80;;;3.40;99.90;;;;;;4977809;28;20185;-74
2022/01/20 03:44:26;;;;;;;8.10;1.50;;;3.30;99.90;;;;;;4977564;28;20280;-72
2022/01/20 03:46:52;;;;;;;11.13;2.13;;;3.40;99.90;;;;;;4956524;28;20181;-72
2022/01/20 03:49:27;;;;;;;10.77;1.77;;;3.30;99.90;;;;;;4979004;28;20271;-71
2022/01/20 03:51:54;;;;;;;6.87;1.90;;;3.30;99.90;;;;;;4975892;28;20767;-75
2022/01/20 03:54:20;;;;;;;4.47;1.60;;;3.30;99.90;;;;;;4975551;28;20575;-74
2022/01/20 03:56:46;;;;;;;6.83;1.90;;;3.30;99.90;;;;;;4978281;28;20184;-73
2022/01/20 03:59:12;;;;;;;7.60;1.70;;;3.20;99.90;;;;;;4978990;28;20200;-72
2022/01/20 04:01:37;;;;;;;6.60;1.40;;;3.20;99.90;;;;;;4976369;28;20196;-73
2022/01/20 04:04:03;;;;;;;5.73;1.40;;;3.20;99.90;;;;;;4972682;28;20231;-73
2022/01/20 04:06:29;;;;;;;7.47;1.10;;;3.10;99.90;;;;;;4977202;28;20316;-73
2022/01/20 04:08:55;;;;;;;4.60;1.23;;;3.10;99.90;;;;;;4975688;28;20679;-73
2022/01/20 04:11:23;;;;;;;3.90;0.90;;;3.00;99.90;;;;;;4976298;28;20258;-73
2022/01/20 04:13:50;;;;;;;5.97;1.37;;;3.00;99.90;;;;;;4958283;28;20263;-72
2022/01/20 04:16:49;;;;;;;4.17;1.07;;;2.90;99.90;;;;;;4973757;28;20189;-73
2022/01/20 04:19:15;;;;;;;3.10;1.47;;;2.90;99.90;;;;;;4980159;28;20196;-72
2022/01/20 04:21:42;;;;;;;3.37;1.23;;;2.80;99.90;;;;;;4972617;28;21158;-72
2022/01/20 04:24:08;;;;;;;4.87;1.23;;;2.90;99.90;;;;;;4977029;28;20243;-71
2022/01/20 04:26:35;;;;;;;6.00;1.60;;;2.80;99.90;;;;;;4976997;28;20598;-72
2022/01/20 04:29:03;;;;;;;7.87;1.50;;;2.80;99.90;;;;;;4975867;28;20185;-73
2022/01/20 04:31:30;;;;;;;2.97;1.00;;;2.80;99.90;;;;;;4972487;28;20274;-72
2022/01/20 04:33:57;;;;;;;4.33;1.10;;;2.90;99.90;;;;;;4973334;28;20283;-71
2022/01/20 04:36:24;;;;;;;3.73;0.97;;;2.90;99.90;;;;;;4974849;28;20268;-71
2022/01/20 04:38:50;;;;;;;6.10;1.40;;;2.80;99.90;;;;;;4973682;28;20556;-72
2022/01/20 04:41:16;;;;;;;4.77;1.00;;;2.80;99.90;;;;;;4976551;28;20227;-72
2022/01/20 04:43:41;;;;;;;3.27;1.30;;;2.90;99.90;;;;;;4954882;28;20204;-74
2022/01/20 04:46:15;;;;;;;2.53;1.13;;;2.90;99.90;;;;;;4973692;28;20173;-72
2022/01/20 04:57:21;;;;;;;2.23;0.73;;;2.70;99.90;;;;;;4905480;29;20670;-72
2022/01/20 04:59:49;;;;;;;4.40;1.00;;;2.60;99.90;;;;;;4971135;28;20588;-72
2022/01/20 05:02:15;;;;;;;4.47;0.90;;;2.60;99.90;;;;;;4969223;28;20526;-72
2022/01/20 05:04:41;;;;;;;4.77;1.67;;;2.60;99.90;;;;;;4970498;28;20196;-71
2022/01/20 05:07:08;;;;;;;5.07;1.10;;;2.70;99.90;;;;;;4978194;28;20207;-71
2022/01/20 05:09:35;;;;;;;3.80;0.90;;;2.60;99.90;;;;;;4976927;28;20189;-71
2022/01/20 05:12:05;;;;;;;10.37;1.33;;;2.60;99.90;;;;;;4975954;28;20657;-72
2022/01/20 05:14:30;;;;;;;2.47;0.90;;;2.60;99.90;;;;;;4971639;28;20211;-71
2022/01/20 05:16:57;;;;;;;3.70;0.90;;;2.60;99.90;;;;;;4974395;28;20189;-71
2022/01/20 05:19:25;;;;;;;4.33;1.77;;;2.60;99.90;;;;;;4972806;28;20633;-72
2022/01/20 05:21:51;;;;;;;6.70;1.50;;;2.70;99.90;;;;;;4978766;28;20358;-71
2022/01/20 05:24:16;;;;;;;6.63;1.30;;;2.60;99.90;;;;;;4975520;28;20327;-73
2022/01/20 05:26:42;;;;;;;8.07;1.10;;;2.30;99.90;;;;;;4975316;28;20662;-71
2022/01/20 05:29:07;;;;;;;4.23;1.27;;;1.80;99.90;;;;;;4976355;28;20192;-73
2022/01/20 05:31:33;;;;;;;2.60;1.10;;;1.60;99.90;;;;;;4979601;28;20181;-70
2022/01/20 05:33:59;;;;;;;5.57;1.40;;;1.60;99.90;;;;;;4972654;28;20223;-71
2022/01/20 05:36:25;;;;;;;7.37;1.07;;;1.70;99.90;;;;;;4972497;28;20232;-72
2022/01/20 05:38:51;;;;;;;3.23;1.27;;;1.80;99.90;;;;;;4975010;28;20189;-71
2022/01/20 05:41:18;;;;;;;3.80;1.00;;;1.90;99.90;;;;;;4974033;28;20215;-72
2022/01/20 05:43:44;;;;;;;4.33;0.90;;;1.90;99.90;;;;;;4972851;28;20200;-72
2022/01/20 05:46:10;;;;;;;4.53;0.83;;;2.00;99.90;;;;;;4972737;28;20235;-72
2022/01/20 05:48:36;;;;;;;4.97;1.37;;;2.00;99.90;;;;;;4973771;28;20279;-72
2022/01/20 05:51:03;;;;;;;9.13;1.30;;;2.00;99.90;;;;;;4973865;28;20191;-72
2022/01/20 05:53:30;;;;;;;5.37;1.80;;;2.10;99.90;;;;;;4975235;28;20209;-72
2022/01/20 05:55:56;;;;;;;3.60;1.10;;;2.10;99.90;;;;;;4975433;28;20193;-72
2022/01/20 05:58:21;;;;;;;6.00;1.23;;;2.10;99.90;;;;;;4972831;28;20250;-72
2022/01/20 06:00:48;;;;;;;5.50;1.20;;;2.20;99.90;;;;;;4969662;28;20205;-71
2022/01/20 06:05:58;;;;;;;2.67;1.10;;;2.10;99.90;;;;;;4975824;28;20286;-74
2022/01/20 06:08:24;;;;;;;4.10;1.10;;;2.10;99.90;;;;;;4975752;28;20188;-73
2022/01/20 06:10:50;;;;;;;4.30;1.50;;;2.00;99.90;;;;;;4954979;28;20551;-72
2022/01/20 06:13:16;;;;;;;2.87;1.20;;;1.90;99.90;;;;;;4973837;28;20209;-71
2022/01/20 06:15:42;;;;;;;1.37;0.67;;;1.90;99.90;;;;;;4974760;28;20192;-71
2022/01/20 06:18:08;;;;;;;5.93;0.87;;;1.90;99.90;;;;;;4974411;28;20188;-72
2022/01/20 06:20:34;;;;;;;4.37;1.43;;;1.90;99.90;;;;;;4971399;28;20267;-73
2022/01/20 06:23:00;;;;;;;3.70;0.93;;;1.90;99.90;;;;;;4972897;28;20197;-72
2022/01/20 06:25:25;;;;;;;7.43;1.20;;;1.90;99.90;;;;;;4969029;28;20181;-73
2022/01/20 06:27:51;;;;;;;3.07;0.60;;;1.90;99.90;;;;;;4976820;28;20185;-73
2022/01/20 06:30:17;;;;;;;7.93;1.20;;;1.90;99.90;;;;;;4974555;28;20700;-73
2022/01/20 06:32:43;;;;;;;4.83;1.43;;;1.90;99.90;;;;;;4976841;28;20206;-72
2022/01/20 06:35:09;;;;;;;4.50;1.13;;;1.90;99.90;;;;;;4971802;28;20201;-71
2022/01/20 06:37:35;;;;;;;5.03;1.10;;;1.80;99.90;;;;;;4973712;28;20231;-74
2022/01/20 06:40:02;;;;;;;4.07;1.00;;;1.80;99.90;;;;;;4972153;28;20300;-72
2022/01/20 06:42:28;;;;;;;4.00;1.07;;;1.80;99.90;;;;;;4973690;28;20173;-72
2022/01/20 06:44:54;;;;;;;5.10;1.57;;;1.70;99.90;;;;;;4978101;28;20208;-72
2022/01/20 06:47:20;;;;;;;5.53;1.03;;;1.70;99.90;;;;;;4975878;28;20177;-73
2022/01/20 06:49:46;;;;;;;6.43;1.23;;;1.60;99.90;;;;;;4973917;28;20180;-72
2022/01/20 06:52:12;;;;;;;8.73;1.10;;;1.50;99.90;;;;;;4973601;28;20193;-72
2022/01/20 06:54:38;;;;;;;5.83;1.50;;;1.50;99.90;;;;;;4974980;28;20239;-73
2022/01/20 06:57:04;;;;;;;5.03;1.23;;;1.40;99.90;;;;;;4957051;28;20189;-72
2022/01/20 06:59:30;;;;;;;3.80;1.20;;;1.30;99.90;;;;;;4978961;28;20303;-72
2022/01/20 07:01:56;;;;;;;5.10;1.30;;;1.20;99.90;;;;;;4972514;28;20185;-72
2022/01/20 07:04:23;;;;;;;9.17;2.30;;;1.20;99.90;;;;;;4966930;28;20196;-73
2022/01/20 07:06:48;;;;;;;6.13;1.00;;;1.10;99.90;;;;;;4968289;28;20189;-72
2022/01/20 07:09:14;;;;;;;4.57;1.27;;;1.10;99.90;;;;;;4974829;28;20239;-73
2022/01/20 07:11:41;;;;;;;6.50;1.17;;;1.10;99.90;;;;;;4970070;28;20195;-72
2022/01/20 07:14:08;;;;;;;4.87;1.60;;;1.10;99.90;;;;;;4976529;28;20216;-72
2022/01/20 07:16:34;;;;;;;5.23;1.03;;;1.00;99.90;;;;;;4977982;28;20192;-73
2022/01/20 07:19:00;;;;;;;6.57;1.07;;;1.00;99.90;;;;;;4973980;28;20650;-72
2022/01/20 07:21:27;;;;;;;6.80;1.70;;;1.00;99.90;;;;;;4976746;28;20208;-73
2022/01/20 07:23:53;;;;;;;5.10;1.20;;;1.00;99.90;;;;;;4974238;28;20251;-72
2022/01/20 07:26:18;;;;;;;6.00;1.57;;;0.90;99.90;;;;;;4971892;28;20469;-72
2022/01/20 07:28:44;;;;;;;4.70;1.33;;;0.90;99.90;;;;;;4975852;28;20633;-73
2022/01/20 07:31:10;;;;;;;11.97;2.37;;;0.80;99.90;;;;;;4970839;28;20203;-73
2022/01/20 07:33:36;;;;;;;7.13;1.47;;;0.90;99.90;;;;;;4974188;28;20712;-72
2022/01/20 07:36:03;;;;;;;5.20;1.70;;;0.90;99.90;;;;;;4976745;28;20207;-74
2022/01/20 07:38:30;;;;;;;7.00;1.37;;;0.80;99.90;;;;;;4979240;28;20522;-73
2022/01/20 07:40:56;;;;;;;8.53;1.80;;;0.80;99.90;;;;;;4973353;28;20213;-73
2022/01/20 07:43:22;;;;;;;4.57;1.63;;;0.90;99.90;;;;;;4970604;28;20239;-73
2022/01/20 07:45:48;;;;;;;5.90;1.80;;;0.90;99.90;;;;;;4973672;28;20266;-73
2022/01/20 07:48:14;;;;;;;6.63;2.03;;;0.80;99.90;;;;;;4971424;28;20216;-74
2022/01/20 07:50:39;;;;;;;8.53;1.80;;;0.80;99.90;;;;;;4976811;28;20196;-73
2022/01/20 07:53:05;;;;;;;9.60;2.27;;;0.80;99.90;;;;;;4973975;28;20195;-73
2022/01/20 07:55:31;;;;;;;3.57;1.40;;;0.80;99.90;;;;;;4973150;28;20656;-73
2022/01/20 07:57:57;;;;;;;12.67;2.10;;;0.90;99.90;;;;;;4969214;28;20747;-73
2022/01/20 08:00:23;;;;;;;6.53;1.47;;;0.90;99.90;;;;;;4976720;28;20216;-73
2022/01/20 08:02:49;;;;;;;7.70;2.20;;;0.90;99.90;;;;;;4973380;28;20184;-73
2022/01/20 08:05:14;;;;;;;8.93;2.20;;;0.90;99.90;;;;;;4970552;28;20247;-74
2022/01/20 08:07:40;;;;;;;7.53;2.60;;;0.90;99.90;;;;;;4977115;28;20212;-73
2022/01/20 08:10:07;;;;;;;8.23;2.13;;;1.00;99.90;;;;;;4975858;28;20199;-73
2022/01/20 08:12:33;;;;;;;8.17;2.30;;;1.00;99.90;;;;;;4958418;28;20195;-73
2022/01/20 08:14:59;;;;;;;5.63;2.30;;;1.00;99.90;;;;;;4974190;28;20215;-74
2022/01/20 08:17:25;;;;;;;4.80;2.00;;;1.00;99.90;;;;;;4954603;28;20266;-74
2022/01/20 08:19:51;;;;;;;4.10;1.63;;;1.10;99.90;;;;;;4975855;28;20326;-73
2022/01/20 08:22:17;;;;;;;4.47;1.40;;;1.10;99.90;;;;;;4969542;28;20640;-72
2022/01/20 08:24:43;;;;;;;8.43;1.73;;;1.10;99.90;;;;;;4977751;28;20296;-73
2022/01/20 08:27:09;;;;;;;4.90;1.50;;;1.10;99.90;;;;;;4970752;28;20488;-73
2022/01/20 08:29:35;;;;;;;5.43;1.37;;;1.10;99.90;;;;;;4972843;28;20656;-73
2022/01/20 08:32:02;;;;;;;4.97;1.60;;;1.10;99.90;;;;;;4975612;28;20189;-73
2022/01/20 08:34:27;;;;;;;6.33;1.47;;;1.10;99.90;;;;;;4971963;28;20211;-73
2022/01/20 08:36:55;;;;;;;4.43;1.53;;;1.10;99.90;;;;;;4972618;28;20564;-74
2022/01/20 08:39:44;;;;;;;7.67;1.83;;;1.20;99.90;;;;;;4976445;28;20181;-73
2022/01/20 08:42:09;;;;;;;4.80;1.97;;;1.20;99.90;;;;;;4975236;28;20674;-73
2022/01/20 08:44:35;;;;;;;6.20;1.73;;;1.20;99.90;;;;;;4973853;28;20767;-73
2022/01/20 08:47:02;;;;;;;6.83;1.77;;;1.30;99.90;;;;;;4975942;28;20185;-74
2022/01/20 08:49:29;;;;;;;7.67;1.33;;;1.30;99.90;;;;;;4973060;28;20185;-73
2022/01/20 08:51:55;;;;;;;8.87;1.83;;;1.40;99.90;;;;;;4975923;28;20302;-72
2022/01/20 08:54:21;;;;;;;10.53;2.17;;;1.40;99.90;;;;;;4959332;28;20295;-73
2022/01/20 08:56:47;;;;;;;9.60;1.67;;;1.40;99.90;;;;;;4974036;28;20214;-73
2022/01/20 08:59:13;;;;;;;4.70;1.47;;;1.50;99.90;;;;;;4974278;28;20205;-73
2022/01/20 09:01:40;;;;;;;4.63;1.30;;;1.50;99.90;;;;;;4975220;28;20255;-73
2022/01/20 09:04:07;;;;;;;4.87;1.03;;;1.50;99.90;;;;;;4971444;28;20362;-72
2022/01/20 09:06:33;;;;;;;4.57;1.83;;;1.60;99.90;;;;;;4973258;28;20188;-74
2022/01/20 09:08:59;;;;;;;2.73;1.47;;;1.70;99.90;;;;;;4974992;28;20185;-74
2022/01/20 09:11:31;;;;;;;5.17;1.47;;;1.70;99.90;;;;;;4975219;28;20210;-73
2022/01/20 09:16:43;;;;;;;7.37;1.33;;;1.70;99.90;;;;;;4973222;28;20396;-73
2022/01/20 09:19:09;;;;;;;5.53;1.30;;;1.70;99.90;;;;;;4974351;28;20211;-72
2022/01/20 09:21:38;;;;;;;4.20;1.17;;;1.80;99.90;;;;;;4972767;28;20216;-72
2022/01/20 09:24:04;;;;;;;5.33;1.37;;;1.90;99.90;;;;;;4972657;28;20216;-72
2022/01/20 09:26:30;;;;;;;7.07;1.83;;;2.00;99.90;;;;;;4973435;28;20180;-71
2022/01/20 09:28:56;;;;;;;3.27;0.93;;;2.00;99.90;;;;;;4974356;28;20629;-73
2022/01/20 09:31:24;;;;;;;5.60;1.43;;;2.00;99.90;;;;;;4974258;28;20675;-73
2022/01/20 09:33:50;;;;;;;3.50;1.17;;;2.10;99.90;;;;;;4972512;28;20208;-72
2022/01/20 09:36:16;;;;;;;5.87;1.57;;;2.00;99.90;;;;;;4972079;28;20287;-72
2022/01/20 09:38:42;;;;;;;3.90;1.43;;;2.10;99.90;;;;;;4973210;28;20221;-72
2022/01/20 09:41:08;;;;;;;6.70;1.30;;;2.10;99.90;;;;;;4959688;28;20209;-72
2022/01/20 09:43:34;;;;;;;4.30;1.20;;;2.10;99.90;;;;;;4974066;28;20236;-75
2022/01/20 09:46:01;;;;;;;2.77;1.27;;;2.20;99.90;;;;;;4974804;28;20219;-72
2022/01/20 09:48:28;;;;;;;5.03;1.20;;;2.30;99.90;;;;;;4974511;28;20175;-72
2022/01/20 09:50:55;;;;;;;7.53;1.77;;;2.30;99.90;;;;;;4974388;28;20188;-72
2022/01/20 09:53:21;;;;;;;6.50;1.30;;;2.40;99.90;;;;;;4973666;28;20200;-73
2022/01/20 09:55:47;;;;;;;4.87;1.73;;;2.30;99.90;;;;;;4971992;28;20261;-72
2022/01/20 09:58:13;;;;;;;7.67;1.33;;;2.10;99.90;;;;;;4971958;28;20645;-72
2022/01/20 10:00:42;;;;;;;4.90;1.40;;;2.10;99.90;;;;;;4975212;28;20212;-72
2022/01/20 10:03:12;;;;;;;8.50;1.40;;;2.10;99.90;;;;;;4974548;28;20636;-72
2022/01/20 10:05:41;;;;;;;7.17;1.63;;;2.30;99.90;;;;;;4974125;28;20176;-73
2022/01/20 10:08:13;;;;;;;5.20;1.17;;;2.30;99.90;;;;;;4954695;28;20294;-73
2022/01/20 10:10:43;;;;;;;7.03;1.50;;;2.50;99.90;;;;;;4975471;28;20180;-72
2022/01/20 10:13:10;;;;;;;6.93;1.20;;;2.40;99.90;;;;;;4975939;28;20667;-73
2022/01/20 10:15:36;;;;;;;6.37;1.90;;;2.50;99.90;;;;;;4974436;28;20590;-72
2022/01/20 10:18:10;;;;;;;5.40;1.13;;;2.70;99.90;;;;;;4957601;28;20601;-72
2022/01/20 10:20:50;;;;;;;9.17;1.80;;;2.90;99.90;;;;;;4974409;28;20208;-74
2022/01/20 10:23:33;;;;;;;5.60;1.87;;;3.10;99.90;;;;;;4969916;28;20283;-71
2022/01/20 10:26:09;;;;;;;4.23;1.23;;;3.30;99.90;;;;;;4973284;28;20283;-72
2022/01/20 10:28:50;;;;;;;7.20;1.83;;;3.40;99.90;;;;;;4975974;28;20231;-74
2022/01/20 10:31:19;;;;;;;4.87;1.50;;;3.40;99.90;;;;;;4978619;28;20184;-72
2022/01/20 10:33:46;;;;;;;7.10;2.17;;;3.20;99.90;;;;;;4976468;28;20226;-72
2022/01/20 10:36:12;;;;;;;6.03;1.50;;;3.10;99.90;;;;;;4979790;28;20189;-73
2022/01/20 10:38:56;;;;;;;3.50;1.23;;;3.00;99.90;;;;;;4979125;28;20260;-71
2022/01/20 10:41:34;;;;;;;3.20;1.20;;;3.00;99.90;;;;;;4976920;28;20211;-74
2022/01/20 10:44:14;;;;;;;6.83;1.37;;;2.90;99.90;;;;;;4976640;28;20251;-72
2022/01/20 10:46:54;;;;;;;5.00;1.47;;;2.70;99.90;;;;;;4974147;28;20205;-72
2022/01/20 10:49:26;;;;;;;5.47;1.43;;;2.70;99.90;;;;;;4975936;28;20184;-71
2022/01/20 10:52:01;;;;;;;5.67;1.40;;;2.50;99.90;;;;;;4976708;28;20271;-71
2022/01/20 10:54:39;;;;;;;2.13;0.90;;;2.40;99.90;;;;;;4974984;28;20200;-72
2022/01/20 10:57:07;;;;;;;3.37;1.17;;;2.20;99.90;;;;;;4974124;28;20279;-71
2022/01/20 10:59:34;;;;;;;5.53;1.27;;;2.10;99.90;;;;;;4976767;28;20188;-73
2022/01/20 11:02:08;;;;;;;4.33;1.03;;;2.00;99.90;;;;;;4976433;28;20238;-72
2022/01/20 11:04:36;;;;;;;3.13;1.30;;;2.20;99.90;;;;;;4972289;28;20538;-74
2022/01/20 11:07:06;;;;;;;2.87;1.00;;;2.40;99.90;;;;;;4970431;28;20185;-73
2022/01/20 11:09:35;;;;;;;4.67;1.33;;;2.60;99.90;;;;;;4975770;28;20173;-72
2022/01/20 11:12:02;;;;;;;7.33;1.53;;;2.70;99.90;;;;;;4980304;28;20184;-71
2022/01/20 11:14:30;;;;;;;7.90;2.00;;;2.90;99.90;;;;;;4971527;28;20203;-71
2022/01/20 11:16:58;;;;;;;6.03;1.03;;;3.00;99.90;;;;;;4976706;28;20678;-72
2022/01/20 11:19:24;;;;;;;3.87;1.17;;;3.00;99.90;;;;;;4971818;28;20191;-72
2022/01/20 11:21:50;;;;;;;4.17;1.23;;;2.90;99.90;;;;;;4972994;28;20196;-74
2022/01/20 11:24:21;;;;;;;3.53;1.20;;;2.80;99.90;;;;;;4973752;28;20207;-72
2022/01/20 11:26:59;;;;;;;7.70;1.87;;;2.70;99.90;;;;;;4971041;28;20189;-74
2022/01/20 11:29:45;;;;;;;7.53;1.30;;;2.70;99.90;;;;;;4974232;28;20189;-73
2022/01/20 11:32:18;;;;;;;3.60;0.97;;;2.90;99.90;;;;;;4966695;28;20192;-74
2022/01/20 11:35:09;;;;;;;4.73;0.97;;;3.00;99.90;;;;;;4970499;28;20215;-74
2022/01/20 11:37:39;;;;;;;6.27;1.77;;;3.00;99.90;;;;;;4965569;28;20177;-74
2022/01/20 11:40:18;;;;;;;5.70;1.27;;;3.00;99.90;;;;;;4958914;28;20664;-75
2022/01/20 11:43:05;;;;;;;5.17;1.67;;;2.90;99.90;;;;;;4950866;28;20556;-75
2022/01/20 11:45:33;;;;;;;2.73;1.10;;;2.70;99.90;;;;;;4973201;28;20184;-74
2022/01/20 11:48:18;;;;;;;3.80;1.40;;;2.60;99.90;;;;;;4973008;28;20191;-76
2022/01/20 11:50:45;;;;;;;6.13;1.50;;;2.50;99.90;;;;;;4968098;28;20542;-74
2022/01/20 11:53:14;;;;;;;4.13;1.77;;;2.40;99.90;;;;;;4981752;28;20235;-73
2022/01/20 11:55:50;;;;;;;4.60;2.30;;;2.20;99.90;;;;;;4971466;28;20192;-73
2022/01/20 11:58:20;;;;;;;6.67;1.67;;;2.20;99.90;;;;;;4972962;28;20290;-74
2022/01/20 12:01:04;;;;;;;3.00;1.73;;;2.20;99.90;;;;;;4975845;28;20204;-74
2022/01/20 12:03:31;;;;;;;6.80;2.27;;;2.30;99.90;;;;;;4972461;28;20605;-74
2022/01/20 12:05:58;;;;;;;4.60;1.70;;;2.40;99.90;;;;;;4969728;28;20588;-73
2022/01/20 12:08:24;;;;;;;8.93;1.67;;;2.60;99.90;;;;;;4971164;28;20191;-73
2022/01/20 12:11:08;;;;;;;6.20;1.60;;;2.70;99.90;;;;;;4972636;28;20193;-72
2022/01/20 12:13:45;;;;;;;4.63;1.40;;;2.80;99.90;;;;;;4976400;28;20210;-72
2022/01/20 12:16:18;;;;;;;6.30;1.30;;;2.80;99.90;;;;;;4977072;28;20192;-73
2022/01/20 12:18:52;;;;;;;7.23;1.70;;;3.00;99.90;;;;;;4972413;28;20185;-73
2022/01/20 12:21:19;;;;;;;7.40;1.80;;;2.90;99.90;;;;;;4970433;28;20644;-72
2022/01/20 12:23:46;;;;;;;7.37;1.73;;;2.90;99.90;;;;;;4975321;28;20249;-74
2022/01/20 12:26:12;;;;;;;5.80;1.70;;;2.90;99.90;;;;;;4972467;28;20269;-72
2022/01/20 12:28:39;;;;;;;4.33;1.70;;;2.80;99.90;;;;;;4968891;28;20234;-72
2022/01/20 12:31:08;;;;;;;6.30;1.73;;;2.80;99.90;;;;;;4971698;28;20326;-73
2022/01/20 12:33:37;;;;;;;5.03;1.43;;;2.60;99.90;;;;;;4969801;28;20685;-73
2022/01/20 12:36:04;;;;;;;3.40;1.20;;;2.40;99.90;;;;;;4970142;28;20559;-75
2022/01/20 12:38:36;;;;;;;8.13;1.93;;;2.40;99.90;;;;;;4967485;28;20187;-73
2022/01/20 12:41:24;;;;;;;3.37;1.40;;;2.30;99.90;;;;;;4976698;28;21162;-73
2022/01/20 12:43:56;;;;;;;7.00;1.40;;;2.30;99.90;;;;;;4976326;28;20189;-72
2022/01/20 12:46:27;;;;;;;7.23;1.50;;;2.30;99.90;;;;;;4976832;28;20171;-72
2022/01/20 12:49:12;;;;;;;4.60;1.33;;;2.40;99.90;;;;;;4976998;28;20280;-73
2022/01/20 12:51:51;;;;;;;7.80;2.23;;;2.50;99.90;;;;;;4976618;28;20181;-73
2022/01/20 12:54:27;;;;;;;4.37;1.20;;;2.50;99.90;;;;;;4975128;28;20213;-74
2022/01/20 12:56:55;;;;;;;2.33;1.10;;;2.50;99.90;;;;;;4978193;28;20222;-74
2022/01/20 12:59:42;;;;;;;5.43;1.47;;;2.40;99.90;;;;;;4976986;28;20207;-74
2022/01/20 13:02:09;;;;;;;3.87;1.57;;;2.20;99.90;;;;;;4976970;28;20547;-72
2022/01/20 13:04:37;;;;;;;4.37;1.90;;;2.10;99.90;;;;;;4975947;28;21025;-73
2022/01/20 13:07:05;;;;;;;3.57;1.47;;;2.10;99.90;;;;;;4975705;28;20188;-72
2022/01/20 13:09:49;;;;;;;5.70;2.13;;;2.00;99.90;;;;;;4960972;28;20937;-73
2022/01/20 13:12:18;;;;;;;2.70;0.93;;;1.80;99.90;;;;;;4975190;28;20188;-72
2022/01/20 13:14:49;;;;;;;6.10;1.37;;;1.80;99.90;;;;;;4976498;28;20602;-72
2022/01/20 13:17:30;;;;;;;2.53;1.07;;;1.80;99.90;;;;;;4976846;28;20187;-72
2022/01/20 13:19:58;;;;;;;5.13;0.83;;;1.80;99.90;;;;;;4976860;28;20208;-72
2022/01/20 13:25:17;;;;;;;6.53;1.40;;;1.90;99.90;;;;;;4979226;28;20246;-74
2022/01/20 13:27:59;;;;;;;3.17;1.00;;;1.80;99.90;;;;;;4976051;28;20243;-74
2022/01/20 13:30:41;;;;;;;4.53;1.37;;;1.70;99.90;;;;;;4976487;28;20208;-71
2022/01/20 13:33:15;;;;;;;5.13;1.40;;;1.70;99.90;;;;;;4975610;28;20187;-72
2022/01/20 13:35:43;;;;;;;4.10;0.73;;;1.60;99.90;;;;;;4975888;28;20230;-72
2022/01/20 13:38:09;;;;;;;5.47;1.30;;;1.60;99.90;;;;;;4972324;28;20307;-72
2022/01/20 13:40:37;;;;;;;5.93;1.77;;;1.70;99.90;;;;;;4972372;28;20208;-73
2022/01/20 13:45:39;;;;;;;3.70;1.30;;;1.80;99.90;;;;;;4971746;28;20193;-75
2022/01/20 13:48:05;;;;;;;2.43;1.23;;;1.80;99.90;;;;;;4969925;28;20189;-72
2022/01/20 13:50:39;;;;;;;3.47;0.90;;;1.70;99.90;;;;;;4972738;28;20198;-72
2022/01/20 13:53:25;;;;;;;4.43;1.13;;;1.60;99.90;;;;;;4967456;28;20247;-72
2022/01/20 13:55:50;;;;;;;2.63;1.10;;;1.60;99.90;;;;;;4974490;28;20243;-72
2022/01/20 13:58:28;;;;;;;2.00;0.90;;;1.40;99.90;;;;;;4969063;28;20446;-73
2022/01/20 14:00:56;;;;;;;3.23;0.70;;;1.10;99.90;;;;;;4973665;28;20212;-73
2022/01/20 14:03:23;;;;;;;1.27;0.40;;;1.00;99.90;;;;;;4971111;28;20207;-72
2022/01/20 14:05:50;;;;;;;1.27;0.50;;;0.60;99.90;;;;;;4973719;28;20172;-73
2022/01/20 14:08:17;;;;;;;5.07;0.87;;;0.20;99.90;;;;;;4969526;28;20189;-72
2022/01/20 14:10:43;;;;;;;3.00;0.90;;;0.10;99.90;;;;;;4974654;28;20203;-72
2022/01/20 14:13:10;;;;;;;4.73;1.00;;;0.10;99.90;;;;;;4970930;28;20185;-71
2022/01/20 14:15:35;;;;;;;1.27;0.90;;;0.20;99.90;;;;;;4975593;28;20184;-71
2022/01/20 14:18:02;;;;;;;1.20;0.67;;;0.20;99.90;;;;;;4972802;28;20194;-72
2022/01/20 14:20:31;;;;;;;2.27;0.80;;;0.20;99.90;;;;;;4976255;28;20192;-72
2022/01/20 14:23:00;;;;;;;5.47;1.40;;;0.20;99.90;;;;;;4958243;28;20533;-71
2022/01/20 14:25:26;;;;;;;2.80;1.03;;;0.30;99.90;;;;;;4969060;28;20173;-71